Flight Track Log - Related Links

Times and Time Zones

All times are in EDT time to prevent confusion due to time zone crossing. See the RPA3143 flight status page for this flight to view local times or setup timezone preferences in your user account.


Time Position Orientation Groundspeed Altitude Reporting Facility
EDT Latitude Longitude Course Direction KTS MPH feet Rate Location/Type
Wed 08:09:00 AM 38.6117 -77.3050 218° Southwest  Level FlightAware Approximate
Wed 08:10:00 AM 38.5264 -77.3923 225° Southwest  Level FlightAware Approximate
Wed 08:11:00 AM 38.4494 -77.4913 225° Southwest  Level FlightAware Approximate
Wed 08:12:00 AM 38.3669 -77.5774 233° Southwest  Level FlightAware Approximate
Wed 08:12:43 AM 38.8567 -77.3511 226° Southwest 346 398 14,100  Level Washington Center
Wed 08:13:00 AM 38.2985 -77.6859 233° Southwest  Level FlightAware Approximate
Wed 08:13:44 AM 38.7603 -77.3967 200° South 357 411 15,000  Level Washington Center
Wed 08:14:00 AM 38.2284 -77.7917 233° Southwest  Level FlightAware Approximate
Wed 08:14:44 AM 38.6700 -77.4397 200° South 357 411 17,200  Level Washington Center
Wed 08:15:00 AM 38.1634 -77.9034 233° Southwest  Level FlightAware Approximate
Wed 08:15:42 AM 38.5794 -77.4825 200° South 357 411 19,100  Level Washington Center
Wed 08:16:00 AM 38.0953 -78.0118 226° Southwest  Level FlightAware Approximate
Wed 08:16:44 AM 38.4850 -77.5278 201° Southwest 357 411 21,200  Level Washington Center
Wed 08:17:00 AM 38.0200 -78.1123 226° Southwest  Level FlightAware Approximate
Wed 08:17:42 AM 38.3944 -77.5786 204° Southwest 357 411 22,900  Level Washington Center
Wed 08:18:43 AM 38.3242 -77.6772 228° Southwest 363 418 24,500 1,475 Climbing Washington Center
Wed 08:19:44 AM 38.2575 -77.7811 231° Southwest 375 432 25,900 1,311 Climbing Washington Center
Wed 08:20:42 AM 38.1889 -77.8900 231° Southwest 392 451 27,100 1,150 Climbing Washington Center
Wed 08:21:44 AM 38.1117 -77.9958 227° Southwest 403 464 28,200 1,131 Climbing Washington Center
Wed 08:22:44 AM 38.0222 -78.0853 218° Southwest 408 470 29,400 1,119 Climbing Washington Center
Wed 08:23:42 AM 37.9308 -78.1719 217° Southwest 414 476 30,400 1,068 Climbing Washington Center
Wed 08:24:42 AM 37.8517 -78.2558 220° Southwest 414 476 31,500 1,091 Climbing Washington Center
Wed 08:25:43 AM 37.7622 -78.3419 217° Southwest 414 476 32,600 992 Climbing Washington Center
Wed 08:26:43 AM 37.6725 -78.4306 218° Southwest 414 476 33,500 942 Climbing Washington Center
Wed 08:27:44 AM 37.5808 -78.5164 217° Southwest 414 476 34,500 908 Climbing Washington Center
Wed 08:28:42 AM 37.4825 -78.6119 218° Southwest 414 476 35,300 763 Climbing Washington Center
Wed 08:29:42 AM 37.3947 -78.6975 218° Southwest 414 476 36,000 350 Climbing Washington Center
Wed 08:30:42 AM 37.3133 -78.7778 218° Southwest 395 455 36,000  Level Washington Center
Wed 08:31:43 AM 37.2256 -78.8575 216° Southwest 395 455 36,000  Level Washington Center
Wed 08:32:43 AM 37.1422 -78.9372 217° Southwest 390 449 36,000  Level Washington Center
Wed 08:33:44 AM 37.0669 -79.0122 218° Southwest 390 449 36,000  Level Washington Center
Wed 08:34:42 AM 36.9811 -79.0942 217° Southwest 390 449 36,000  Level Washington Center
Wed 08:35:43 AM 36.8953 -79.1758 217° Southwest 390 449 36,000  Level Washington Center
Wed 08:36:43 AM 36.8114 -79.2550 217° Southwest 390 449 36,000  Level Washington Center
Wed 08:38:30 AM 36.6486 -79.4072 217° Southwest 392 451 36,000  Level Atlanta Center
Wed 08:39:30 AM 36.5642 -79.4872 217° Southwest 392 451 36,000  Level Atlanta Center
Wed 08:40:30 AM 36.4794 -79.5694 218° Southwest 392 451 36,000  Level Atlanta Center
Wed 08:41:30 AM 36.3947 -79.6464 216° Southwest 392 451 36,000  Level Atlanta Center
Wed 08:42:30 AM 36.3161 -79.7203 217° Southwest 392 451 36,000  Level Atlanta Center
Wed 08:43:30 AM 36.2311 -79.7994 217° Southwest 392 451 36,000  Level Atlanta Center
Wed 08:44:30 AM 36.1422 -79.8811 217° Southwest 397 457 36,000  Level Atlanta Center
Wed 08:45:30 AM 36.0450 -79.9708 217° Southwest 397 457 36,000  Level Atlanta Center
Wed 08:46:30 AM 35.9467 -80.0219 203° Southwest 397 457 36,000  Level Atlanta Center
Wed 08:47:30 AM 35.8439 -80.0733 202° Southwest 397 457 36,000  Level Atlanta Center
Wed 08:48:30 AM 35.7417 -80.1294 204° Southwest 397 457 36,000  Level Atlanta Center
Wed 08:49:30 AM 35.6389 -80.1828 203° Southwest 403 464 36,000  Level Atlanta Center
Wed 08:50:30 AM 35.5361 -80.2336 202° Southwest 415 478 36,000  Level Atlanta Center
Wed 08:51:30 AM 35.4314 -80.2869 203° Southwest 409 471 36,000  Level Atlanta Center
Wed 08:52:30 AM 35.3267 -80.3375 201° Southwest 408 470 36,000  Level Atlanta Center
Wed 08:53:30 AM 35.2236 -80.3878 202° Southwest 408 470 36,000  Level Atlanta Center
Wed 08:55:53 AM 34.9739 -80.5139 202° Southwest 426 490 36,000  Level Jacksonville Center
Wed 08:56:53 AM 34.8683 -80.5647 202° Southwest 413 475 36,000  Level Jacksonville Center
Wed 08:57:53 AM 34.7692 -80.6156 203° Southwest 406 467 36,000  Level Jacksonville Center
Wed 08:58:53 AM 34.6658 -80.6686 203° Southwest 400 460 36,000  Level Jacksonville Center
Wed 08:59:53 AM 34.5667 -80.7167 202° Southwest 414 476 36,000  Level Jacksonville Center
Wed 09:00:53 AM 34.4653 -80.7644 201° Southwest 416 479 36,000  Level Jacksonville Center
Wed 09:01:53 AM 34.3617 -80.8122 201° Southwest 405 466 36,000  Level Jacksonville Center
Wed 09:02:53 AM 34.2475 -80.8478 194° South 401 461 36,000  Level Jacksonville Center
Wed 09:03:53 AM 34.1331 -80.8606 185° South 401 461 36,000  Level Jacksonville Center
Wed 09:04:53 AM 34.0164 -80.8733 185° South 419 482 36,000  Level Jacksonville Center
Wed 09:05:53 AM 33.9081 -80.8833 184° South 428 493 36,000  Level Jacksonville Center
Wed 09:06:53 AM 33.7936 -80.9008 187° South 428 493 36,000  Level Jacksonville Center
Wed 09:07:53 AM 33.6747 -80.9108 184° South 423 487 36,000  Level Jacksonville Center
Wed 09:08:53 AM 33.5603 -80.9261 186° South 423 487 36,000  Level Jacksonville Center
Wed 09:09:53 AM 33.4414 -80.9386 185° South 423 487 36,000  Level Jacksonville Center
Wed 09:10:53 AM 33.3269 -80.9511 185° South 423 487 36,000  Level Jacksonville Center
Wed 09:11:53 AM 33.2103 -80.9661 186° South 423 487 36,000  Level Jacksonville Center
Wed 09:12:53 AM 33.0956 -80.9783 185° South 423 487 36,000  Level Jacksonville Center
Wed 09:13:53 AM 32.9769 -80.9933 186° South 423 487 36,000  Level Jacksonville Center
Wed 09:14:53 AM 32.8622 -81.0056 185° South 423 487 36,000  Level Jacksonville Center
Wed 09:15:53 AM 32.7433 -81.0181 185° South 423 487 36,000  Level Jacksonville Center
Wed 09:16:53 AM 32.6267 -81.0328 186° South 423 487 36,000  Level Jacksonville Center
Wed 09:17:53 AM 32.5122 -81.0425 184° South 423 487 36,000  Level Jacksonville Center
Wed 09:18:53 AM 32.3850 -81.0597 187° South 418 481 36,000  Level Jacksonville Center
Wed 09:19:53 AM 32.2767 -81.0694 184° South 425 489 36,000  Level Jacksonville Center
Wed 09:20:53 AM 32.1597 -81.0814 185° South 425 489 36,000  Level Jacksonville Center
Wed 09:21:53 AM 32.0431 -81.0986 187° South 425 489 36,000  Level Jacksonville Center
Wed 09:22:53 AM 31.9264 -81.1106 185° South 425 489 36,000  Level Jacksonville Center
Wed 09:23:53 AM 31.7931 -81.1231 185° South 430 495 36,000  Level Jacksonville Center
Wed 09:24:53 AM 31.6825 -81.1372 186° South 445 512 36,000  Level Jacksonville Center
Wed 09:25:53 AM 31.5533 -81.1494 185° South 461 531 36,000  Level Jacksonville Center
Wed 09:26:53 AM 31.4114 -81.1667 186° South 461 531 36,000  Level Jacksonville Center
Wed 09:27:53 AM 31.2842 -81.1764 184° South 461 531 36,000  Level Jacksonville Center
Wed 09:28:53 AM 31.1547 -81.1689 177° South 461 531 36,000  Level Jacksonville Center
Wed 09:29:53 AM 31.0272 -81.1664 179° South 461 531 36,000  Level Jacksonville Center
Wed 09:30:53 AM 30.9019 -81.1639 179° South 456 525 36,000  Level Jacksonville Center
Wed 09:31:53 AM 30.7725 -81.1567 177° South 456 525 36,000 -1,050 Level Jacksonville Center
Wed 09:32:53 AM 30.6431 -81.1542 179° South 462 532 33,900 -1,800 Descending Jacksonville Center
Wed 09:33:53 AM 30.5178 -81.1517 179° South 457 526 32,400 -1,950 Descending Jacksonville Center
Wed 09:34:53 AM 30.3967 -81.1467 178° South 452 520 30,000 -2,300 Descending Jacksonville Center
Wed 09:35:53 AM 30.2794 -81.1414 178° South 441 507 27,800 -2,200 Descending Jacksonville Center
Wed 09:36:53 AM 30.1647 -81.1411 180° South 422 486 25,600 -1,950 Descending Jacksonville Center
Wed 09:37:53 AM 30.0561 -81.1358 178° South 401 461 23,900 -800 Descending Jacksonville Center
Wed 09:38:53 AM 29.9456 -81.1356 180° South 401 461 24,000 50 Climbing Jacksonville Center
Wed 09:39:53 AM 29.8325 -81.1303 178° South 401 461 24,000 -250 Level Jacksonville Center
Wed 09:40:53 AM 29.7117 -81.1303 180° South 417 480 23,500 -1,250 Descending Jacksonville Center
Wed 09:41:53 AM 29.5906 -81.1275 179° South 428 493 21,500 -2,350 Descending Jacksonville Center
Wed 09:42:53 AM 29.4775 -81.1225 178° South 422 486 18,800 -1,750 Descending Jacksonville Center
Wed 09:43:53 AM 29.3628 -81.1197 179° South 417 480 18,000 -1,100 Descending Jacksonville Center
Wed 09:44:53 AM 29.2522 -81.1169 179° South 410 472 16,600 -1,700 Descending Jacksonville Center
Wed 09:45:53 AM 29.1497 -81.1047 174° South 395 455 14,600 -2,000 Descending Jacksonville Center
Wed 09:46:53 AM 29.0472 -81.0969 176° South 384 442 12,600 -1,700 Descending Jacksonville Center
Wed 09:47:53 AM 28.9533 -81.0917 177° South 367 422 11,200 -1,350 Descending Jacksonville Center
Wed 09:48:53 AM 28.8656 -81.0789 173° South 344 396 9,900 -1,450 Descending Jacksonville Center
Wed 09:49:53 AM 28.7881 -81.0733 176° South 306 352 8,300 -1,350 Descending Jacksonville Center
Wed 09:50:53 AM 28.7331 -81.0222 141° Southeast 246 283 7,200 -850 Descending Jacksonville Center
Wed 09:51:53 AM 28.6878 -81.0514 209° Southwest 183 211 6,600 -600 Descending Jacksonville Center
Wed 09:52:53 AM 28.6803 -81.1225 263° West 172 198 6,000 -650 Descending Jacksonville Center
Wed 09:53:53 AM 28.6750 -81.2006 266° West 202 232 5,300 -1,150 Descending Jacksonville Center
Wed 09:54:53 AM 28.6614 -81.2694 257° West 217 250 3,700 -1,078 Descending Jacksonville Center
Wed 09:56:01 AM 28.6000 -81.2833 191° South 207 238 3,000 -493 Descending Orlando TRACON
Wed 09:57:07 AM 28.5333 -81.2833 180° South 200 230 2,600 -803 Descending Orlando TRACON
Wed 09:58:08 AM 28.4833 -81.2833 180° South 170 196 1,300 -1,279 Descending Orlando TRACON

Login

Don't have an account? Register now (free) for customized features, flight alerts, and more!